sensor_id;sensor_type;location;lat;lon;timestamp;pressure;altitude;pressure_sealevel;temperature;humidity
21182;BME280;10749;46.296;7.524;2024-03-29T00:00:51;93626.16;;;9.35;47.95
21182;BME280;10749;46.296;7.524;2024-03-29T00:03:16;93629.41;;;9.50;48.09
21182;BME280;10749;46.296;7.524;2024-03-29T00:05:42;93637.72;;;9.54;48.06
21182;BME280;10749;46.296;7.524;2024-03-29T00:08:07;93653.16;;;9.44;47.91
21182;BME280;10749;46.296;7.524;2024-03-29T00:10:33;93660.28;;;9.50;48.07
21182;BME280;10749;46.296;7.524;2024-03-29T00:12:58;93659.06;;;9.46;47.71
21182;BME280;10749;46.296;7.524;2024-03-29T00:15:23;93645.84;;;9.39;47.79
21182;BME280;10749;46.296;7.524;2024-03-29T00:17:49;93646.25;;;9.43;47.96
21182;BME280;10749;46.296;7.524;2024-03-29T00:20:14;93636.50;;;9.30;47.48
21182;BME280;10749;46.296;7.524;2024-03-29T00:22:40;93626.94;;;9.29;47.57
21182;BME280;10749;46.296;7.524;2024-03-29T00:25:06;93635.06;;;9.27;47.66
21182;BME280;10749;46.296;7.524;2024-03-29T00:27:31;93646.63;;;9.26;47.45
21182;BME280;10749;46.296;7.524;2024-03-29T00:29:57;93648.66;;;9.24;47.67
21182;BME280;10749;46.296;7.524;2024-03-29T00:32:23;93643.56;;;9.16;47.28
21182;BME280;10749;46.296;7.524;2024-03-29T00:34:52;93653.53;;;9.14;47.34
21182;BME280;10749;46.296;7.524;2024-03-29T00:37:18;93668.50;;;9.01;47.48
21182;BME280;10749;46.296;7.524;2024-03-29T00:39:44;93653.84;;;8.92;47.36
21182;BME280;10749;46.296;7.524;2024-03-29T00:42:09;93653.84;;;8.92;47.61
21182;BME280;10749;46.296;7.524;2024-03-29T00:44:38;93646.53;;;8.87;47.74
21182;BME280;10749;46.296;7.524;2024-03-29T00:47:04;93642.06;;;8.81;47.78
21182;BME280;10749;46.296;7.524;2024-03-29T00:49:29;93649.09;;;8.74;47.61
21182;BME280;10749;46.296;7.524;2024-03-29T00:51:55;93663.09;;;8.68;47.82
21182;BME280;10749;46.296;7.524;2024-03-29T00:54:20;93662.88;;;8.63;47.76
21182;BME280;10749;46.296;7.524;2024-03-29T00:56:45;93663.84;;;8.55;47.98
21182;BME280;10749;46.296;7.524;2024-03-29T00:59:11;93659.41;;;8.56;48.11
21182;BME280;10749;46.296;7.524;2024-03-29T01:01:36;93657.31;;;8.45;48.21
21182;BME280;10749;46.296;7.524;2024-03-29T01:04:01;93654.47;;;8.46;48.15
21182;BME280;10749;46.296;7.524;2024-03-29T01:06:27;93656.34;;;8.52;48.07
21182;BME280;10749;46.296;7.524;2024-03-29T01:08:52;93654.88;;;8.43;48.39
21182;BME280;10749;46.296;7.524;2024-03-29T01:11:17;93652.22;;;8.43;48.28
21182;BME280;10749;46.296;7.524;2024-03-29T01:13:42;93655.63;;;8.30;48.25
21182;BME280;10749;46.296;7.524;2024-03-29T01:16:08;93661.41;;;8.19;48.28
21182;BME280;10749;46.296;7.524;2024-03-29T01:18:33;93658.09;;;8.11;48.49
21182;BME280;10749;46.296;7.524;2024-03-29T01:20:59;93669.31;;;8.19;48.76
21182;BME280;10749;46.296;7.524;2024-03-29T01:23:24;93668.91;;;8.22;48.73
21182;BME280;10749;46.296;7.524;2024-03-29T01:25:49;93673.78;;;8.25;48.52
21182;BME280;10749;46.296;7.524;2024-03-29T01:28:15;93666.88;;;8.24;48.62
21182;BME280;10749;46.296;7.524;2024-03-29T01:30:40;93668.84;;;8.16;48.42
21182;BME280;10749;46.296;7.524;2024-03-29T01:33:05;93669.81;;;8.08;48.40
21182;BME280;10749;46.296;7.524;2024-03-29T01:35:31;93672.47;;;8.08;48.44
21182;BME280;10749;46.296;7.524;2024-03-29T01:37:56;93677.38;;;8.11;48.54
21182;BME280;10749;46.296;7.524;2024-03-29T01:40:21;93669.91;;;8.21;48.41
21182;BME280;10749;46.296;7.524;2024-03-29T01:42:46;93674.00;;;8.24;48.51
21182;BME280;10749;46.296;7.524;2024-03-29T01:45:12;93687.59;;;8.27;48.73
21182;BME280;10749;46.296;7.524;2024-03-29T01:47:37;93687.97;;;8.24;48.68
21182;BME280;10749;46.296;7.524;2024-03-29T01:50:03;93688.38;;;8.21;48.83
21182;BME280;10749;46.296;7.524;2024-03-29T01:52:29;93665.47;;;8.22;48.89
21182;BME280;10749;46.296;7.524;2024-03-29T01:54:54;93665.59;;;8.07;48.52
21182;BME280;10749;46.296;7.524;2024-03-29T01:57:20;93658.25;;;8.03;48.86
21182;BME280;10749;46.296;7.524;2024-03-29T01:59:46;93664.41;;;8.16;48.73
21182;BME280;10749;46.296;7.524;2024-03-29T02:02:13;93670.91;;;8.20;48.57
21182;BME280;10749;46.296;7.524;2024-03-29T02:04:38;93661.19;;;8.21;48.72
21182;BME280;10749;46.296;7.524;2024-03-29T02:07:04;93656.75;;;8.21;48.72
21182;BME280;10749;46.296;7.524;2024-03-29T02:09:29;93658.56;;;8.21;48.99
21182;BME280;10749;46.296;7.524;2024-03-29T02:11:55;93668.09;;;8.22;48.64
21182;BME280;10749;46.296;7.524;2024-03-29T02:14:20;93660.00;;;8.23;48.97
21182;BME280;10749;46.296;7.524;2024-03-29T02:16:45;93651.47;;;8.21;49.09
21182;BME280;10749;46.296;7.524;2024-03-29T02:19:11;93663.25;;;8.25;49.04
21182;BME280;10749;46.296;7.524;2024-03-29T02:21:37;93651.72;;;8.26;49.29
21182;BME280;10749;46.296;7.524;2024-03-29T02:24:07;93660.06;;;8.30;49.27
21182;BME280;10749;46.296;7.524;2024-03-29T02:26:33;93664.34;;;8.31;49.21
21182;BME280;10749;46.296;7.524;2024-03-29T02:29:01;93653.91;;;8.23;48.97
21182;BME280;10749;46.296;7.524;2024-03-29T02:31:27;93637.69;;;8.19;48.96
21182;BME280;10749;46.296;7.524;2024-03-29T02:33:52;93649.84;;;8.20;48.89
21182;BME280;10749;46.296;7.524;2024-03-29T02:36:17;93650.22;;;8.17;49.12
21182;BME280;10749;46.296;7.524;2024-03-29T02:38:43;93656.75;;;8.21;49.04
21182;BME280;10749;46.296;7.524;2024-03-29T02:41:08;93650.03;;;8.19;49.01
21182;BME280;10749;46.296;7.524;2024-03-29T02:43:33;93661.97;;;8.15;49.20
21182;BME280;10749;46.296;7.524;2024-03-29T02:45:58;93671.13;;;8.19;49.16
21182;BME280;10749;46.296;7.524;2024-03-29T02:48:24;93666.47;;;8.21;48.98
21182;BME280;10749;46.296;7.524;2024-03-29T02:50:49;93655.69;;;8.16;49.07
21182;BME280;10749;46.296;7.524;2024-03-29T02:53:14;93651.53;;;8.28;48.88
21182;BME280;10749;46.296;7.524;2024-03-29T02:55:41;93661.16;;;8.42;49.02
21182;BME280;10749;46.296;7.524;2024-03-29T02:58:06;93674.22;;;8.57;48.92
21182;BME280;10749;46.296;7.524;2024-03-29T03:00:33;93680.94;;;8.66;48.95
21182;BME280;10749;46.296;7.524;2024-03-29T03:02:58;93687.84;;;8.32;49.13
21182;BME280;10749;46.296;7.524;2024-03-29T03:05:23;93687.25;;;8.30;49.33
21182;BME280;10749;46.296;7.524;2024-03-29T03:07:48;93701.09;;;8.39;49.42
21182;BME280;10749;46.296;7.524;2024-03-29T03:10:32;93687.13;;;8.17;49.26
21182;BME280;10749;46.296;7.524;2024-03-29T03:13:16;93704.91;;;8.09;49.44
21182;BME280;10749;46.296;7.524;2024-03-29T03:15:42;93703.72;;;8.11;49.48
21182;BME280;10749;46.296;7.524;2024-03-29T03:18:07;93693.78;;;8.13;49.31
21182;BME280;10749;46.296;7.524;2024-03-29T03:20:32;93690.44;;;8.26;49.43
21182;BME280;10749;46.296;7.524;2024-03-29T03:22:58;93686.84;;;8.33;49.38
21182;BME280;10749;46.296;7.524;2024-03-29T03:25:27;93684.94;;;8.49;49.29
21182;BME280;10749;46.296;7.524;2024-03-29T03:27:53;93680.44;;;8.49;49.51
21182;BME280;10749;46.296;7.524;2024-03-29T03:30:18;93687.09;;;8.39;49.03
21182;BME280;10749;46.296;7.524;2024-03-29T03:32:44;93682.81;;;8.38;49.33
21182;BME280;10749;46.296;7.524;2024-03-29T03:35:09;93673.28;;;8.37;49.30
21182;BME280;10749;46.296;7.524;2024-03-29T03:37:34;93658.28;;;8.37;49.66
21182;BME280;10749;46.296;7.524;2024-03-29T03:40:01;93655.44;;;8.39;49.27
21182;BME280;10749;46.296;7.524;2024-03-29T03:42:26;93650.41;;;8.44;49.27
21182;BME280;10749;46.296;7.524;2024-03-29T03:44:51;93648.38;;;8.39;49.35
21182;BME280;10749;46.296;7.524;2024-03-29T03:47:17;93625.81;;;8.37;49.20
21182;BME280;10749;46.296;7.524;2024-03-29T03:49:42;93632.50;;;8.32;49.06
21182;BME280;10749;46.296;7.524;2024-03-29T03:52:07;93625.63;;;8.38;49.13
21182;BME280;10749;46.296;7.524;2024-03-29T03:54:32;93622.41;;;8.43;49.31
21182;BME280;10749;46.296;7.524;2024-03-29T03:56:58;93593.66;;;8.48;49.54
21182;BME280;10749;46.296;7.524;2024-03-29T03:59:23;93608.50;;;8.62;49.43
21182;BME280;10749;46.296;7.524;2024-03-29T04:01:48;93617.22;;;8.56;49.55
21182;BME280;10749;46.296;7.524;2024-03-29T04:04:17;93619.25;;;8.60;49.54
21182;BME280;10749;46.296;7.524;2024-03-29T04:06:42;93618.25;;;8.68;49.42
21182;BME280;10749;46.296;7.524;2024-03-29T04:09:07;93599.34;;;8.58;49.71
21182;BME280;10749;46.296;7.524;2024-03-29T04:11:33;93592.19;;;8.39;49.51
21182;BME280;10749;46.296;7.524;2024-03-29T04:13:59;93600.16;;;8.52;49.29
21182;BME280;10749;46.296;7.524;2024-03-29T04:16:24;93588.72;;;8.38;49.48
21182;BME280;10749;46.296;7.524;2024-03-29T04:18:49;93585.00;;;8.26;49.57
21182;BME280;10749;46.296;7.524;2024-03-29T04:21:14;93585.50;;;8.43;49.44
21182;BME280;10749;46.296;7.524;2024-03-29T04:23:40;93584.72;;;8.49;49.59
21182;BME280;10749;46.296;7.524;2024-03-29T04:26:05;93569.91;;;8.48;49.67
21182;BME280;10749;46.296;7.524;2024-03-29T04:28:30;93566.03;;;8.44;49.67
21182;BME280;10749;46.296;7.524;2024-03-29T04:30:57;93577.09;;;8.26;49.78
21182;BME280;10749;46.296;7.524;2024-03-29T04:33:23;93580.63;;;8.40;50.01
21182;BME280;10749;46.296;7.524;2024-03-29T04:36:00;93572.91;;;8.31;49.92
21182;BME280;10749;46.296;7.524;2024-03-29T04:38:26;93573.72;;;8.32;49.86
21182;BME280;10749;46.296;7.524;2024-03-29T04:40:53;93585.91;;;8.46;49.74
21182;BME280;10749;46.296;7.524;2024-03-29T04:43:21;93596.88;;;8.50;49.73
21182;BME280;10749;46.296;7.524;2024-03-29T04:45:46;93608.19;;;8.37;49.51
21182;BME280;10749;46.296;7.524;2024-03-29T04:48:12;93596.97;;;8.28;49.76
21182;BME280;10749;46.296;7.524;2024-03-29T04:50:38;93591.34;;;8.31;49.55
21182;BME280;10749;46.296;7.524;2024-03-29T04:53:04;93594.81;;;8.39;49.59
21182;BME280;10749;46.296;7.524;2024-03-29T04:55:29;93607.00;;;8.40;49.63
21182;BME280;10749;46.296;7.524;2024-03-29T04:57:54;93619.97;;;8.41;49.56
21182;BME280;10749;46.296;7.524;2024-03-29T05:00:20;93615.09;;;8.38;49.56
21182;BME280;10749;46.296;7.524;2024-03-29T05:02:45;93613.81;;;8.27;49.54
21182;BME280;10749;46.296;7.524;2024-03-29T05:05:10;93601.16;;;8.16;49.71
21182;BME280;10749;46.296;7.524;2024-03-29T05:07:35;93598.25;;;8.05;49.68
21182;BME280;10749;46.296;7.524;2024-03-29T05:10:01;93580.03;;;8.03;49.85
21182;BME280;10749;46.296;7.524;2024-03-29T05:12:28;93598.91;;;8.13;49.97
21182;BME280;10749;46.296;7.524;2024-03-29T05:14:54;93589.78;;;8.09;49.63
21182;BME280;10749;46.296;7.524;2024-03-29T05:17:19;93608.72;;;7.92;49.82
21182;BME280;10749;46.296;7.524;2024-03-29T05:19:50;93590.25;;;7.85;49.51
21182;BME280;10749;46.296;7.524;2024-03-29T05:22:18;93588.22;;;7.87;49.78
21182;BME280;10749;46.296;7.524;2024-03-29T05:24:43;93587.31;;;8.01;49.86
21182;BME280;10749;46.296;7.524;2024-03-29T05:27:11;93592.66;;;8.14;49.91
21182;BME280;10749;46.296;7.524;2024-03-29T05:29:36;93592.25;;;8.17;49.70
21182;BME280;10749;46.296;7.524;2024-03-29T05:32:02;93575.28;;;8.26;49.50
21182;BME280;10749;46.296;7.524;2024-03-29T05:34:27;93581.41;;;8.33;49.96
21182;BME280;10749;46.296;7.524;2024-03-29T05:36:52;93573.72;;;8.39;49.54
21182;BME280;10749;46.296;7.524;2024-03-29T05:39:18;93591.41;;;8.45;49.80
21182;BME280;10749;46.296;7.524;2024-03-29T05:41:44;93578.22;;;8.45;49.71
21182;BME280;10749;46.296;7.524;2024-03-29T05:44:09;93581.88;;;8.50;49.86
21182;BME280;10749;46.296;7.524;2024-03-29T05:46:34;93583.09;;;8.54;49.65
21182;BME280;10749;46.296;7.524;2024-03-29T05:48:59;93581.88;;;8.50;49.80
21182;BME280;10749;46.296;7.524;2024-03-29T05:51:25;93580.69;;;8.59;49.75
21182;BME280;10749;46.296;7.524;2024-03-29T05:53:50;93601.84;;;8.79;49.98
21182;BME280;10749;46.296;7.524;2024-03-29T05:56:16;93569.44;;;8.98;49.69
21182;BME280;10749;46.296;7.524;2024-03-29T05:58:41;93584.50;;;9.11;49.91
21182;BME280;10749;46.296;7.524;2024-03-29T06:01:07;93602.78;;;9.19;49.60
21182;BME280;10749;46.296;7.524;2024-03-29T06:03:32;93608.47;;;9.22;49.59
21182;BME280;10749;46.296;7.524;2024-03-29T06:05:57;93619.41;;;9.06;49.60
21182;BME280;10749;46.296;7.524;2024-03-29T06:08:23;93614.13;;;9.13;49.67
21182;BME280;10749;46.296;7.524;2024-03-29T06:10:49;93595.22;;;9.16;49.51
21182;BME280;10749;46.296;7.524;2024-03-29T06:13:14;93591.63;;;9.43;49.71
21182;BME280;10749;46.296;7.524;2024-03-29T06:16:15;93614.56;;;9.82;49.50
21182;BME280;10749;46.296;7.524;2024-03-29T06:18:58;93628.78;;;10.01;49.64
21182;BME280;10749;46.296;7.524;2024-03-29T06:21:24;93628.78;;;9.88;49.29
21182;BME280;10749;46.296;7.524;2024-03-29T06:23:49;93628.41;;;9.64;49.15
21182;BME280;10749;46.296;7.524;2024-03-29T06:26:14;93626.53;;;9.65;49.23
21182;BME280;10749;46.296;7.524;2024-03-29T06:28:39;93636.53;;;9.63;49.30
21182;BME280;10749;46.296;7.524;2024-03-29T06:31:05;93624.75;;;9.52;49.12
21182;BME280;10749;46.296;7.524;2024-03-29T06:33:30;93618.41;;;9.34;49.12
21182;BME280;10749;46.296;7.524;2024-03-29T06:35:55;93611.31;;;9.34;49.19
21182;BME280;10749;46.296;7.524;2024-03-29T06:38:21;93609.50;;;9.48;49.44
21182;BME280;10749;46.296;7.524;2024-03-29T06:40:46;93603.78;;;9.44;49.11
21182;BME280;10749;46.296;7.524;2024-03-29T06:43:11;93603.59;;;9.46;49.20
21182;BME280;10749;46.296;7.524;2024-03-29T06:45:40;93614.59;;;9.56;49.50
21182;BME280;10749;46.296;7.524;2024-03-29T06:48:05;93630.63;;;9.48;49.36
21182;BME280;10749;46.296;7.524;2024-03-29T06:50:31;93619.25;;;9.27;49.46
21182;BME280;10749;46.296;7.524;2024-03-29T06:52:56;93613.34;;;9.39;49.40
21182;BME280;10749;46.296;7.524;2024-03-29T06:55:21;93598.72;;;9.69;49.36
21182;BME280;10749;46.296;7.524;2024-03-29T06:57:46;93588.53;;;9.92;49.12
21182;BME280;10749;46.296;7.524;2024-03-29T07:00:12;93601.91;;;10.10;49.54
21182;BME280;10749;46.296;7.524;2024-03-29T07:02:38;93595.41;;;10.19;49.45
21182;BME280;10749;46.296;7.524;2024-03-29T07:05:03;93587.47;;;10.13;49.15
21182;BME280;10749;46.296;7.524;2024-03-29T07:07:32;93580.75;;;10.24;49.09
21182;BME280;10749;46.296;7.524;2024-03-29T07:09:57;93601.06;;;10.43;49.29
21182;BME280;10749;46.296;7.524;2024-03-29T07:12:23;93603.88;;;10.54;49.28
21182;BME280;10749;46.296;7.524;2024-03-29T07:14:49;93603.00;;;10.67;49.25
21182;BME280;10749;46.296;7.524;2024-03-29T07:17:14;93597.56;;;10.49;49.04
21182;BME280;10749;46.296;7.524;2024-03-29T07:19:40;93586.56;;;10.58;49.30
21182;BME280;10749;46.296;7.524;2024-03-29T07:22:05;93593.19;;;10.74;49.12
21182;BME280;10749;46.296;7.524;2024-03-29T07:24:30;93600.06;;;10.88;49.39
21182;BME280;10749;46.296;7.524;2024-03-29T07:26:56;93597.75;;;10.98;49.06
21182;BME280;10749;46.296;7.524;2024-03-29T07:29:21;93613.00;;;11.03;49.15
21182;BME280;10749;46.296;7.524;2024-03-29T07:31:46;93612.34;;;10.76;48.67
21182;BME280;10749;46.296;7.524;2024-03-29T07:34:11;93592.66;;;10.59;48.79
21182;BME280;10749;46.296;7.524;2024-03-29T07:36:37;93600.31;;;10.80;48.81
21182;BME280;10749;46.296;7.524;2024-03-29T07:39:03;93595.09;;;10.98;48.89
21182;BME280;10749;46.296;7.524;2024-03-29T07:41:29;93608.47;;;11.10;48.88
21182;BME280;10749;46.296;7.524;2024-03-29T07:43:56;93610.59;;;11.01;48.63
21182;BME280;10749;46.296;7.524;2024-03-29T07:46:24;93614.19;;;11.14;48.86
21182;BME280;10749;46.296;7.524;2024-03-29T07:48:50;93613.06;;;11.28;48.91
21182;BME280;10749;46.296;7.524;2024-03-29T07:51:15;93611.19;;;11.35;48.75
21182;BME280;10749;46.296;7.524;2024-03-29T07:53:40;93618.88;;;11.43;48.86
21182;BME280;10749;46.296;7.524;2024-03-29T07:56:05;93615.94;;;11.57;48.69
21182;BME280;10749;46.296;7.524;2024-03-29T07:58:31;93625.88;;;11.62;48.87
21182;BME280;10749;46.296;7.524;2024-03-29T08:00:56;93630.06;;;11.76;48.78
21182;BME280;10749;46.296;7.524;2024-03-29T08:03:22;93630.84;;;11.83;48.82
21182;BME280;10749;46.296;7.524;2024-03-29T08:08:21;93627.28;;;11.96;48.78
21182;BME280;10749;46.296;7.524;2024-03-29T08:10:47;93633.97;;;11.98;48.90
21182;BME280;10749;46.296;7.524;2024-03-29T08:13:12;93627.81;;;12.05;48.87
21182;BME280;10749;46.296;7.524;2024-03-29T08:15:41;93646.09;;;12.13;48.89
21182;BME280;10749;46.296;7.524;2024-03-29T08:18:06;93642.00;;;12.17;48.67
21182;BME280;10749;46.296;7.524;2024-03-29T08:20:31;93628.03;;;12.03;48.53
21182;BME280;10749;46.296;7.524;2024-03-29T08:22:58;93630.31;;;11.99;48.48
21182;BME280;10749;46.296;7.524;2024-03-29T08:25:23;93631.97;;;12.19;48.47
21182;BME280;10749;46.296;7.524;2024-03-29T08:27:49;93626.81;;;12.24;48.47
21182;BME280;10749;46.296;7.524;2024-03-29T08:30:15;93630.44;;;12.29;48.63
21182;BME280;10749;46.296;7.524;2024-03-29T08:32:40;93626.41;;;12.45;48.63
21182;BME280;10749;46.296;7.524;2024-03-29T08:35:05;93633.63;;;12.56;48.85
21182;BME280;10749;46.296;7.524;2024-03-29T08:37:31;93629.50;;;12.60;48.49
21182;BME280;10749;46.296;7.524;2024-03-29T08:39:57;93638.63;;;12.64;48.82
21182;BME280;10749;46.296;7.524;2024-03-29T08:42:22;93653.75;;;12.64;48.74
21182;BME280;10749;46.296;7.524;2024-03-29T08:44:48;93655.06;;;12.73;48.47
21182;BME280;10749;46.296;7.524;2024-03-29T08:47:13;93638.66;;;12.82;48.67
21182;BME280;10749;46.296;7.524;2024-03-29T08:49:38;93639.81;;;12.68;48.34
21182;BME280;10749;46.296;7.524;2024-03-29T08:52:05;93629.56;;;12.72;48.35
21182;BME280;10749;46.296;7.524;2024-03-29T08:54:31;93620.13;;;12.94;48.49
21182;BME280;10749;46.296;7.524;2024-03-29T08:56:56;93638.13;;;13.10;49.02
21182;BME280;10749;46.296;7.524;2024-03-29T08:59:22;93649.41;;;13.24;48.40
21182;BME280;10749;46.296;7.524;2024-03-29T09:01:47;93648.78;;;13.40;48.58
21182;BME280;10749;46.296;7.524;2024-03-29T09:04:17;93645.50;;;13.38;48.40
21182;BME280;10749;46.296;7.524;2024-03-29T09:06:43;93649.94;;;13.44;48.44
21182;BME280;10749;46.296;7.524;2024-03-29T09:09:08;93626.88;;;13.56;48.28
21182;BME280;10749;46.296;7.524;2024-03-29T09:11:35;93639.63;;;13.77;48.47
21182;BME280;10749;46.296;7.524;2024-03-29T09:14:00;93637.34;;;13.93;48.38
21182;BME280;10749;46.296;7.524;2024-03-29T09:16:27;93637.81;;;13.90;48.29
21182;BME280;10749;46.296;7.524;2024-03-29T09:18:54;93634.06;;;13.79;47.84
21182;BME280;10749;46.296;7.524;2024-03-29T09:21:20;93642.03;;;13.67;47.33
21182;BME280;10749;46.296;7.524;2024-03-29T09:23:46;93634.78;;;13.74;47.29
21182;BME280;10749;46.296;7.524;2024-03-29T09:26:13;93632.84;;;13.93;47.69
21182;BME280;10749;46.296;7.524;2024-03-29T09:28:39;93632.38;;;13.96;47.17
21182;BME280;10749;46.296;7.524;2024-03-29T09:31:05;93624.66;;;13.95;47.16
21182;BME280;10749;46.296;7.524;2024-03-29T09:33:30;93619.41;;;14.00;46.56
21182;BME280;10749;46.296;7.524;2024-03-29T09:35:55;93609.63;;;14.23;47.16
21182;BME280;10749;46.296;7.524;2024-03-29T09:38:21;93606.38;;;14.33;46.38
21182;BME280;10749;46.296;7.524;2024-03-29T09:40:50;93608.69;;;14.64;47.01
21182;BME280;10749;46.296;7.524;2024-03-29T09:43:19;93604.72;;;14.90;47.41
21182;BME280;10749;46.296;7.524;2024-03-29T09:45:45;93594.88;;;14.91;46.90
21182;BME280;10749;46.296;7.524;2024-03-29T09:48:10;93592.41;;;15.01;47.03
21182;BME280;10749;46.296;7.524;2024-03-29T09:50:37;93585.50;;;15.16;47.18
21182;BME280;10749;46.296;7.524;2024-03-29T09:53:04;93569.91;;;15.08;45.90
21182;BME280;10749;46.296;7.524;2024-03-29T09:55:30;93571.13;;;15.17;46.10
21182;BME280;10749;46.296;7.524;2024-03-29T09:57:55;93543.66;;;15.45;46.52
21182;BME280;10749;46.296;7.524;2024-03-29T10:00:22;93533.69;;;15.69;46.76
21182;BME280;10749;46.296;7.524;2024-03-29T10:02:49;93539.03;;;15.86;46.77
21182;BME280;10749;46.296;7.524;2024-03-29T10:05:15;93523.78;;;16.03;47.02
21182;BME280;10749;46.296;7.524;2024-03-29T10:07:42;93520.31;;;16.19;47.01
21182;BME280;10749;46.296;7.524;2024-03-29T10:10:09;93525.16;;;16.22;46.29
21182;BME280;10749;46.296;7.524;2024-03-29T10:12:35;93515.81;;;16.41;46.66
21182;BME280;10749;46.296;7.524;2024-03-29T10:15:03;93507.94;;;16.51;46.76
21182;BME280;10749;46.296;7.524;2024-03-29T10:17:36;93482.50;;;16.66;46.85
21182;BME280;10749;46.296;7.524;2024-03-29T10:20:03;93489.38;;;16.40;44.91
21182;BME280;10749;46.296;7.524;2024-03-29T10:22:30;93481.66;;;16.65;45.84
21182;BME280;10749;46.296;7.524;2024-03-29T10:25:00;93472.66;;;16.93;46.07
21182;BME280;10749;46.296;7.524;2024-03-29T10:27:26;93462.63;;;17.05;44.98
21182;BME280;10749;46.296;7.524;2024-03-29T10:29:53;93485.97;;;17.41;45.39
21182;BME280;10749;46.296;7.524;2024-03-29T10:32:18;93498.34;;;17.52;45.11
21182;BME280;10749;46.296;7.524;2024-03-29T10:34:43;93472.50;;;17.58;45.19
21182;BME280;10749;46.296;7.524;2024-03-29T10:37:08;93390.38;;;17.59;42.11
21182;BME280;10749;46.296;7.524;2024-03-29T10:39:35;93495.19;;;17.56;43.76
21182;BME280;10749;46.296;7.524;2024-03-29T10:42:01;93466.09;;;17.59;43.14
21182;BME280;10749;46.296;7.524;2024-03-29T10:44:29;93473.84;;;17.97;43.77
21182;BME280;10749;46.296;7.524;2024-03-29T10:46:56;93467.34;;;18.30;44.30
21182;BME280;10749;46.296;7.524;2024-03-29T10:49:23;93470.88;;;18.36;43.06
21182;BME280;10749;46.296;7.524;2024-03-29T10:51:49;93473.03;;;18.44;42.96
21182;BME280;10749;46.296;7.524;2024-03-29T10:54:16;93454.97;;;18.66;42.73
21182;BME280;10749;46.296;7.524;2024-03-29T10:56:43;93457.69;;;18.81;41.95
21182;BME280;10749;46.296;7.524;2024-03-29T10:59:18;93451.56;;;19.01;42.38
21182;BME280;10749;46.296;7.524;2024-03-29T11:01:51;93442.22;;;19.19;41.82
21182;BME280;10749;46.296;7.524;2024-03-29T11:04:22;93444.66;;;19.30;40.92
21182;BME280;10749;46.296;7.524;2024-03-29T11:06:51;93435.81;;;19.35;40.97
21182;BME280;10749;46.296;7.524;2024-03-29T11:09:20;93420.53;;;19.41;39.08
21182;BME280;10749;46.296;7.524;2024-03-29T11:11:48;93441.44;;;19.38;38.87
21182;BME280;10749;46.296;7.524;2024-03-29T11:14:23;93458.13;;;19.56;40.08
21182;BME280;10749;46.296;7.524;2024-03-29T11:16:50;93436.13;;;19.49;37.80
21182;BME280;10749;46.296;7.524;2024-03-29T11:19:20;93433.19;;;19.60;39.06
21182;BME280;10749;46.296;7.524;2024-03-29T11:21:45;93429.97;;;19.58;38.45
21182;BME280;10749;46.296;7.524;2024-03-29T11:24:13;93441.22;;;19.55;36.91
21182;BME280;10749;46.296;7.524;2024-03-29T11:26:38;93436.63;;;19.35;36.12
21182;BME280;10749;46.296;7.524;2024-03-29T11:29:04;93439.06;;;19.37;36.99
21182;BME280;10749;46.296;7.524;2024-03-29T11:31:29;93447.91;;;19.43;37.97
21182;BME280;10749;46.296;7.524;2024-03-29T11:33:57;93430.19;;;19.31;38.25
21182;BME280;10749;46.296;7.524;2024-03-29T11:36:24;93443.59;;;19.21;37.59
21182;BME280;10749;46.296;7.524;2024-03-29T11:38:52;93443.00;;;19.09;37.46
21182;BME280;10749;46.296;7.524;2024-03-29T11:41:21;93438.19;;;19.06;37.11
21182;BME280;10749;46.296;7.524;2024-03-29T11:43:49;93438.19;;;19.06;37.47
21182;BME280;10749;46.296;7.524;2024-03-29T11:46:15;93447.88;;;19.12;37.16
21182;BME280;10749;46.296;7.524;2024-03-29T11:48:44;93443.59;;;19.26;37.93
21182;BME280;10749;46.296;7.524;2024-03-29T11:51:13;93436.09;;;19.28;37.70
21182;BME280;10749;46.296;7.524;2024-03-29T11:53:40;93448.44;;;19.29;37.46
21182;BME280;10749;46.296;7.524;2024-03-29T11:56:05;93436.09;;;19.28;36.68
21182;BME280;10749;46.296;7.524;2024-03-29T11:58:33;93430.19;;;19.16;36.07
21182;BME280;10749;46.296;7.524;2024-03-29T12:00:59;93412.72;;;19.04;35.84
21182;BME280;10749;46.296;7.524;2024-03-29T12:03:29;93442.72;;;18.96;34.46
21182;BME280;10749;46.296;7.524;2024-03-29T12:05:56;93438.16;;;19.01;36.41
21182;BME280;10749;46.296;7.524;2024-03-29T12:08:29;93430.41;;;19.00;35.19
21182;BME280;10749;46.296;7.524;2024-03-29T12:10:54;93439.81;;;19.07;36.90
21182;BME280;10749;46.296;7.524;2024-03-29T12:13:20;93425.84;;;19.00;36.81
21182;BME280;10749;46.296;7.524;2024-03-29T12:15:45;93442.22;;;19.04;37.22
21182;BME280;10749;46.296;7.524;2024-03-29T12:18:10;93428.25;;;18.97;37.13
21182;BME280;10749;46.296;7.524;2024-03-29T12:20:38;93473.00;;;18.91;36.87
21182;BME280;10749;46.296;7.524;2024-03-29T12:23:08;93466.03;;;18.90;37.13
21182;BME280;10749;46.296;7.524;2024-03-29T12:25:37;93458.25;;;18.94;37.05
21182;BME280;10749;46.296;7.524;2024-03-29T12:28:03;93433.84;;;18.80;35.85
21182;BME280;10749;46.296;7.524;2024-03-29T12:30:29;93459.81;;;18.74;35.99
21182;BME280;10749;46.296;7.524;2024-03-29T12:35:34;93458.25;;;18.83;36.87
21182;BME280;10749;46.296;7.524;2024-03-29T12:38:02;93448.88;;;18.86;35.87
21182;BME280;10749;46.296;7.524;2024-03-29T12:40:32;93439.75;;;18.87;35.91
21182;BME280;10749;46.296;7.524;2024-03-29T12:43:04;93440.31;;;18.94;36.53
21182;BME280;10749;46.296;7.524;2024-03-29T12:45:30;93439.25;;;19.10;35.29
21182;BME280;10749;46.296;7.524;2024-03-29T12:47:55;93447.59;;;19.19;36.10
21182;BME280;10749;46.296;7.524;2024-03-29T12:50:25;93425.31;;;19.13;35.41
21182;BME280;10749;46.296;7.524;2024-03-29T12:52:57;93440.91;;;19.31;35.59
21182;BME280;10749;46.296;7.524;2024-03-29T12:55:23;93438.81;;;19.44;34.72
21182;BME280;10749;46.296;7.524;2024-03-29T12:57:50;93438.28;;;19.67;35.48
21182;BME280;10749;46.296;7.524;2024-03-29T13:00:18;93443.09;;;19.90;36.06
21182;BME280;10749;46.296;7.524;2024-03-29T13:02:44;93433.44;;;19.74;35.05
21182;BME280;10749;46.296;7.524;2024-03-29T13:05:09;93418.63;;;19.97;35.66